Time;durP1;ratioP1;P1;durP2;ratioP2;P2;SDS_P1;SDS_P2;PMS_P1;PMS_P2;Temp;Humidity;BMP_temperature;BMP_pressure;BME280_temperature;BME280_humidity;BME280_pressure;Samples;Min_cycle;Max_cycle;Signal;HPM_P1;HPM_P2
2021/03/01 00:01:19;;;;;;;356.35;320.02;;;;;;;;;;5064704;28;20109;-70
2021/03/01 00:03:45;;;;;;;351.02;315.15;;;;;;;;;;5064018;28;20029;-69
2021/03/01 00:06:11;;;;;;;340.80;305.08;;;;;;;;;;5068044;28;20388;-68
2021/03/01 00:08:37;;;;;;;356.63;320.35;;;;;;;;;;5056807;28;20389;-68
2021/03/01 00:11:03;;;;;;;364.75;328.33;;;;;;;;;;5054801;28;20389;-69
2021/03/01 00:13:29;;;;;;;359.65;323.42;;;;;;;;;;5060457;28;20106;-69
2021/03/01 00:15:55;;;;;;;370.08;333.60;;;;;;;;;;5059741;28;20051;-69
2021/03/01 00:18:21;;;;;;;355.30;319.13;;;;;;;;;;5053766;28;20480;-70
2021/03/01 00:20:47;;;;;;;326.08;291.33;;;;;;;;;;5073247;28;20070;-70
2021/03/01 00:23:13;;;;;;;355.63;319.25;;;;;;;;;;5066811;28;20111;-70
2021/03/01 00:25:41;;;;;;;329.15;294.42;;;;;;;;;;5052966;28;20024;-70
2021/03/01 00:28:06;;;;;;;;;;;;;;;;;;5064551;28;20488;-70
2021/03/01 00:30:32;;;;;;;405.90;367.98;;;;;;;;;;5060358;28;19916;-70
2021/03/01 00:32:58;;;;;;;346.63;310.83;;;;;;;;;;5057453;28;20044;-70
2021/03/01 00:35:24;;;;;;;337.23;301.77;;;;;;;;;;5063038;28;20032;-70
2021/03/01 00:37:51;;;;;;;344.98;309.35;;;;;;;;;;5066708;28;20036;-70
2021/03/01 00:40:18;;;;;;;383.30;346.30;;;;;;;;;;5054794;28;20025;-70
2021/03/01 00:42:44;;;;;;;377.17;340.35;;;;;;;;;;5066455;28;20078;-71
2021/03/01 00:45:10;;;;;;;351.90;316.02;;;;;;;;;;5061785;28;20505;-69
2021/03/01 00:47:36;;;;;;;344.27;308.77;;;;;;;;;;5060360;28;20021;-69
2021/03/01 00:50:03;;;;;;;387.20;349.70;;;;;;;;;;5052690;28;20071;-69
2021/03/01 00:52:29;;;;;;;385.40;348.35;;;;;;;;;;5052856;28;20048;-69
2021/03/01 00:54:55;;;;;;;369.27;332.73;;;;;;;;;;5053222;28;20025;-69
2021/03/01 00:57:21;;;;;;;322.08;287.20;;;;;;;;;;5054211;28;20090;-69
2021/03/01 00:59:47;;;;;;;1706.32;999.90;;;;;;;;;;5054011;28;20036;-69
2021/03/01 01:02:13;;;;;;;384.05;346.65;;;;;;;;;;5054688;28;20550;-69
2021/03/01 01:04:39;;;;;;;390.30;352.83;;;;;;;;;;5054380;28;20397;-69
2021/03/01 01:07:05;;;;;;;369.80;333.13;;;;;;;;;;5059326;28;20037;-69
2021/03/01 01:09:31;;;;;;;361.75;325.25;;;;;;;;;;5061123;28;20025;-70
2021/03/01 01:11:57;;;;;;;356.17;320.10;;;;;;;;;;5053411;28;20051;-69
2021/03/01 01:14:23;;;;;;;380.33;343.17;;;;;;;;;;5064320;28;20040;-69
2021/03/01 01:16:49;;;;;;;347.30;311.70;;;;;;;;;;5054736;28;20036;-69
2021/03/01 01:19:15;;;;;;;383.02;345.70;;;;;;;;;;5060408;28;20024;-69
2021/03/01 01:21:42;;;;;;;411.88;373.60;;;;;;;;;;5063249;28;20032;-70
2021/03/01 01:24:08;;;;;;;342.27;306.75;;;;;;;;;;5069290;28;20035;-70
2021/03/01 01:26:34;;;;;;;368.50;331.92;;;;;;;;;;5065605;28;20082;-70
2021/03/01 01:29:00;;;;;;;389.23;351.98;;;;;;;;;;5067748;28;20073;-69
2021/03/01 01:31:26;;;;;;;368.52;331.83;;;;;;;;;;5057799;28;20100;-70
2021/03/01 01:33:52;;;;;;;382.08;344.98;;;;;;;;;;5069004;28;20093;-70
2021/03/01 01:36:18;;;;;;;386.58;348.75;;;;;;;;;;5055737;28;20029;-69
2021/03/01 01:38:44;;;;;;;314.15;279.58;;;;;;;;;;5054041;28;20033;-70
2021/03/01 01:41:10;;;;;;;391.98;354.45;;;;;;;;;;5053488;28;20025;-70
2021/03/01 01:43:36;;;;;;;339.85;304.27;;;;;;;;;;5066152;28;20021;-70
2021/03/01 01:46:02;;;;;;;340.17;304.88;;;;;;;;;;5054043;28;20077;-70
2021/03/01 01:48:28;;;;;;;408.35;369.90;;;;;;;;;;5060340;28;20083;-69
2021/03/01 01:50:54;;;;;;;336.27;301.17;;;;;;;;;;5057341;28;20029;-70
2021/03/01 01:53:20;;;;;;;341.00;305.50;;;;;;;;;;5064402;28;20056;-70
2021/03/01 01:55:46;;;;;;;351.10;315.35;;;;;;;;;;5053150;28;20574;-69
2021/03/01 01:58:12;;;;;;;381.00;343.92;;;;;;;;;;5053098;28;20029;-70
2021/03/01 02:00:47;;;;;;;347.30;311.52;;;;;;;;;;5059183;28;20040;-69
2021/03/01 02:03:13;;;;;;;367.67;331.15;;;;;;;;;;5057551;28;20542;-69
2021/03/01 02:05:40;;;;;;;348.45;312.58;;;;;;;;;;5054854;28;20025;-70
2021/03/01 02:08:10;;;;;;;372.15;335.35;;;;;;;;;;5052914;28;20025;-70
2021/03/01 02:10:43;;;;;;;417.77;379.23;;;;;;;;;;5057673;28;20040;-70
2021/03/01 02:13:24;;;;;;;416.50;378.15;;;;;;;;;;5051706;28;20037;-70
2021/03/01 02:15:58;;;;;;;396.88;359.17;;;;;;;;;;5053441;28;20025;-70
2021/03/01 02:18:24;;;;;;;365.15;328.85;;;;;;;;;;5052482;28;20159;-68
2021/03/01 02:20:51;;;;;;;359.38;323.42;;;;;;;;;;5060527;28;20057;-70
2021/03/01 02:23:17;;;;;;;355.58;319.35;;;;;;;;;;5056101;28;20032;-70
2021/03/01 02:26:22;;;;;;;334.75;299.48;;;;;;;;;;5052509;28;20464;-71
2021/03/01 02:28:50;;;;;;;400.73;362.90;;;;;;;;;;5059390;28;20063;-71
2021/03/01 02:31:17;;;;;;;336.60;301.08;;;;;;;;;;5073497;28;20488;-70
2021/03/01 02:33:47;;;;;;;360.85;324.70;;;;;;;;;;5051737;28;20049;-71
2021/03/01 02:36:15;;;;;;;388.17;350.83;;;;;;;;;;5051668;28;20021;-70
2021/03/01 02:38:42;;;;;;;370.35;333.67;;;;;;;;;;5064390;28;20040;-69
2021/03/01 02:41:09;;;;;;;384.73;347.15;;;;;;;;;;5051797;28;20035;-69
2021/03/01 02:43:36;;;;;;;398.08;360.45;;;;;;;;;;5051899;28;20057;-69
2021/03/01 02:46:02;;;;;;;362.48;326.17;;;;;;;;;;5051833;28;20032;-70
2021/03/01 02:48:29;;;;;;;366.23;329.52;;;;;;;;;;5063807;28;20033;-70
2021/03/01 02:50:56;;;;;;;357.05;321.08;;;;;;;;;;5059368;28;20056;-70
2021/03/01 02:53:23;;;;;;;373.40;336.80;;;;;;;;;;5050756;28;20044;-70
2021/03/01 02:55:50;;;;;;;364.63;328.65;;;;;;;;;;5057637;28;20021;-70
2021/03/01 02:58:18;;;;;;;376.70;339.75;;;;;;;;;;5052447;28;20543;-70
2021/03/01 03:00:45;;;;;;;343.83;308.30;;;;;;;;;;5052129;28;20103;-70
2021/03/01 03:03:11;;;;;;;;;;;;;;;;;;5051705;28;20078;-71
2021/03/01 03:05:38;;;;;;;398.83;361.35;;;;;;;;;;5052725;28;19909;-69
2021/03/01 03:08:05;;;;;;;376.98;340.33;;;;;;;;;;5052742;28;20033;-70
2021/03/01 03:10:31;;;;;;;352.48;316.63;;;;;;;;;;5052581;28;20032;-70
2021/03/01 03:12:58;;;;;;;348.48;312.67;;;;;;;;;;5051515;28;20060;-70
2021/03/01 03:15:25;;;;;;;397.67;360.05;;;;;;;;;;5055367;28;20083;-70
2021/03/01 03:17:51;;;;;;;400.05;362.25;;;;;;;;;;5057013;28;20025;-72
2021/03/01 03:20:17;;;;;;;370.05;333.45;;;;;;;;;;5073776;28;20097;-71
2021/03/01 03:22:43;;;;;;;395.38;357.77;;;;;;;;;;5060432;28;20165;-70
2021/03/01 03:25:10;;;;;;;371.13;334.73;;;;;;;;;;5056141;28;20067;-71
2021/03/01 03:27:36;;;;;;;344.30;309.20;;;;;;;;;;5057937;28;20025;-69
2021/03/01 03:30:06;;;;;;;316.98;282.38;;;;;;;;;;5068390;28;20090;-69
2021/03/01 03:32:32;;;;;;;360.10;324.08;;;;;;;;;;5053893;28;20425;-69
2021/03/01 03:34:58;;;;;;;369.83;333.15;;;;;;;;;;5054658;28;20110;-69
2021/03/01 03:37:28;;;;;;;380.23;343.25;;;;;;;;;;5055776;28;20063;-69
2021/03/01 03:39:56;;;;;;;365.70;329.60;;;;;;;;;;5060262;28;20031;-69
2021/03/01 03:42:26;;;;;;;363.77;327.63;;;;;;;;;;5073877;28;20035;-69
2021/03/01 03:44:53;;;;;;;393.00;355.73;;;;;;;;;;5058166;28;20052;-69
2021/03/01 03:47:19;;;;;;;334.40;299.33;;;;;;;;;;5055633;28;20037;-70
2021/03/01 03:49:46;;;;;;;380.15;343.50;;;;;;;;;;5056976;28;20060;-69
2021/03/01 03:52:13;;;;;;;382.00;345.17;;;;;;;;;;5054550;28;20037;-70
2021/03/01 03:54:40;;;;;;;378.33;341.40;;;;;;;;;;5068765;28;20086;-69
2021/03/01 03:57:08;;;;;;;375.83;339.05;;;;;;;;;;5055447;28;20029;-69
2021/03/01 03:59:37;;;;;;;379.50;342.65;;;;;;;;;;5058943;28;20033;-69
2021/03/01 04:02:04;;;;;;;362.92;326.65;;;;;;;;;;5061125;28;20036;-69
2021/03/01 04:04:32;;;;;;;376.52;339.73;;;;;;;;;;5064479;28;20074;-70
2021/03/01 04:06:58;;;;;;;390.17;353.00;;;;;;;;;;5055012;28;20906;-69
2021/03/01 04:09:25;;;;;;;350.50;315.08;;;;;;;;;;5067565;28;20036;-69
2021/03/01 04:11:51;;;;;;;;;;;;;;;;;;5055988;28;20438;-69
2021/03/01 04:14:26;;;;;;;394.38;357.15;;;;;;;;;;5057041;28;19917;-70
2021/03/01 04:16:56;;;;;;;357.08;321.45;;;;;;;;;;5054381;28;20024;-70
2021/03/01 04:19:24;;;;;;;356.40;320.30;;;;;;;;;;5054805;28;20017;-70
2021/03/01 04:21:53;;;;;;;382.27;345.33;;;;;;;;;;5066612;28;20425;-70
2021/03/01 04:24:19;;;;;;;397.88;360.40;;;;;;;;;;5063866;28;20428;-69
2021/03/01 04:26:46;;;;;;;385.85;348.65;;;;;;;;;;5053699;28;20028;-70
2021/03/01 04:29:12;;;;;;;396.27;358.77;;;;;;;;;;5058331;28;20029;-70
2021/03/01 04:31:39;;;;;;;342.75;307.67;;;;;;;;;;5058685;28;20024;-70
2021/03/01 04:34:07;;;;;;;331.88;296.85;;;;;;;;;;5063482;28;20116;-70
2021/03/01 04:36:33;;;;;;;342.02;306.73;;;;;;;;;;5056402;28;20024;-70
2021/03/01 04:38:59;;;;;;;385.60;348.70;;;;;;;;;;5065296;28;20384;-70
2021/03/01 04:41:26;;;;;;;352.92;317.05;;;;;;;;;;5057314;28;20028;-69
2021/03/01 04:43:53;;;;;;;337.67;302.48;;;;;;;;;;5057661;28;20432;-71
2021/03/01 04:46:19;;;;;;;375.83;339.10;;;;;;;;;;5058050;28;20384;-70
2021/03/01 04:48:46;;;;;;;355.13;319.35;;;;;;;;;;5067925;28;20025;-70
2021/03/01 04:51:12;;;;;;;371.23;334.52;;;;;;;;;;5054404;28;20029;-70
2021/03/01 04:53:39;;;;;;;408.27;370.35;;;;;;;;;;5054748;28;20045;-70
2021/03/01 04:56:05;;;;;;;369.40;333.07;;;;;;;;;;5052790;28;20111;-70
2021/03/01 04:58:32;;;;;;;377.27;340.75;;;;;;;;;;5054171;28;20029;-70
2021/03/01 05:01:02;;;;;;;374.83;337.95;;;;;;;;;;5061151;28;20149;-70
2021/03/01 05:03:29;;;;;;;350.17;314.55;;;;;;;;;;5065251;28;20044;-71
2021/03/01 05:05:58;;;;;;;350.90;315.30;;;;;;;;;;5053673;28;20052;-70
2021/03/01 05:08:24;;;;;;;385.48;348.42;;;;;;;;;;5056716;28;20063;-70
2021/03/01 05:10:50;;;;;;;382.10;345.02;;;;;;;;;;5061583;28;20048;-69
2021/03/01 05:13:16;;;;;;;389.27;352.52;;;;;;;;;;5055193;28;20063;-69
2021/03/01 05:15:42;;;;;;;348.80;313.33;;;;;;;;;;5060642;28;20056;-70
2021/03/01 05:18:08;;;;;;;316.30;281.98;;;;;;;;;;5069131;28;20032;-70
2021/03/01 05:20:34;;;;;;;305.10;261.27;;;;;;;;;;5053761;28;20032;-69
2021/03/01 05:23:00;;;;;;;362.05;325.75;;;;;;;;;;5053902;28;20041;-70
2021/03/01 05:25:26;;;;;;;325.05;290.15;;;;;;;;;;5055091;28;20094;-72
2021/03/01 05:27:53;;;;;;;368.00;331.23;;;;;;;;;;5052441;28;20460;-70
2021/03/01 05:30:20;;;;;;;368.05;331.38;;;;;;;;;;5053283;28;20017;-70
2021/03/01 05:32:46;;;;;;;330.40;295.58;;;;;;;;;;5052847;28;20047;-70
2021/03/01 05:35:12;;;;;;;310.98;276.10;;;;;;;;;;5054061;28;20393;-70
2021/03/01 05:37:38;;;;;;;332.75;297.60;;;;;;;;;;5063929;28;20035;-70
2021/03/01 05:40:05;;;;;;;388.08;350.98;;;;;;;;;;5056919;28;20033;-70
2021/03/01 05:42:32;;;;;;;377.98;341.17;;;;;;;;;;5062897;28;20033;-70
2021/03/01 05:44:58;;;;;;;365.30;328.77;;;;;;;;;;5054591;28;20021;-70
2021/03/01 05:47:25;;;;;;;353.65;317.75;;;;;;;;;;5054789;28;20048;-69
2021/03/01 05:49:51;;;;;;;407.80;369.77;;;;;;;;;;5058759;28;20025;-72
2021/03/01 05:52:18;;;;;;;393.85;356.45;;;;;;;;;;5061199;28;20356;-71
2021/03/01 05:54:46;;;;;;;345.65;310.08;;;;;;;;;;5066623;28;20028;-70
2021/03/01 05:57:12;;;;;;;372.40;335.80;;;;;;;;;;5052557;28;20507;-70
2021/03/01 05:59:39;;;;;;;347.98;312.45;;;;;;;;;;5053592;28;20036;-70
2021/03/01 06:02:06;;;;;;;354.75;318.88;;;;;;;;;;5052396;28;20029;-70
2021/03/01 06:04:32;;;;;;;373.05;336.48;;;;;;;;;;5051897;28;20126;-70
2021/03/01 06:06:58;;;;;;;390.58;353.58;;;;;;;;;;5052000;28;20025;-73
2021/03/01 06:09:24;;;;;;;345.98;310.58;;;;;;;;;;5056825;28;20033;-69
2021/03/01 06:11:54;;;;;;;380.23;343.58;;;;;;;;;;5052910;28;20025;-69
2021/03/01 06:14:20;;;;;;;393.52;356.35;;;;;;;;;;5054051;28;20132;-70
2021/03/01 06:17:05;;;;;;;359.42;323.30;;;;;;;;;;5054934;28;20020;-71
2021/03/01 06:19:44;;;;;;;371.83;335.40;;;;;;;;;;5061620;28;20033;-70
2021/03/01 06:22:10;;;;;;;388.73;351.67;;;;;;;;;;5060360;28;20029;-70
2021/03/01 06:24:36;;;;;;;347.60;311.80;;;;;;;;;;5056492;28;20032;-70
2021/03/01 06:27:02;;;;;;;384.63;347.92;;;;;;;;;;5058513;28;20550;-69
2021/03/01 06:29:28;;;;;;;410.00;371.88;;;;;;;;;;5061842;28;20064;-70
2021/03/01 06:31:54;;;;;;;397.00;359.58;;;;;;;;;;5054239;28;20586;-69
2021/03/01 06:34:22;;;;;;;379.35;342.63;;;;;;;;;;5057480;28;20340;-69
2021/03/01 06:36:54;;;;;;;346.55;311.00;;;;;;;;;;5052225;28;20017;-69
2021/03/01 06:39:25;;;;;;;358.90;323.17;;;;;;;;;;5060486;28;20039;-70
2021/03/01 06:41:51;;;;;;;361.83;326.20;;;;;;;;;;5051869;28;20358;-70
2021/03/01 06:44:17;;;;;;;326.08;291.67;;;;;;;;;;5052604;28;20040;-70
2021/03/01 06:46:49;;;;;;;386.90;350.20;;;;;;;;;;5055546;28;20388;-70
2021/03/01 06:49:15;;;;;;;373.15;336.90;;;;;;;;;;5065828;28;20025;-69
2021/03/01 06:51:41;;;;;;;336.15;301.05;;;;;;;;;;5052022;28;20031;-70
2021/03/01 06:54:08;;;;;;;392.27;355.20;;;;;;;;;;5052591;28;20044;-70
2021/03/01 06:56:42;;;;;;;343.60;308.47;;;;;;;;;;5054794;28;20021;-69
2021/03/01 06:59:15;;;;;;;361.73;326.10;;;;;;;;;;5052662;28;20056;-69
2021/03/01 07:01:51;;;;;;;390.20;353.35;;;;;;;;;;5051726;28;20047;-71
2021/03/01 07:04:27;;;;;;;356.02;320.52;;;;;;;;;;5051904;28;20079;-71
2021/03/01 07:06:54;;;;;;;369.92;333.88;;;;;;;;;;5056417;28;20052;-69
2021/03/01 07:09:22;;;;;;;376.58;340.02;;;;;;;;;;5059093;28;20040;-70
2021/03/01 07:11:48;;;;;;;407.77;370.17;;;;;;;;;;5051032;28;20396;-70
2021/03/01 07:14:15;;;;;;;407.10;368.88;;;;;;;;;;5052622;28;20742;-69
2021/03/01 07:16:43;;;;;;;323.27;289.00;;;;;;;;;;5051551;28;20033;-69
2021/03/01 07:19:11;;;;;;;366.83;330.73;;;;;;;;;;5051961;28;20056;-69
2021/03/01 07:21:38;;;;;;;1905.75;999.90;;;;;;;;;;5061761;28;20417;-69
2021/03/01 07:24:04;;;;;;;392.83;355.17;;;;;;;;;;5053242;28;20432;-70
2021/03/01 07:26:30;;;;;;;389.17;351.53;;;;;;;;;;5057443;28;20457;-70
2021/03/01 07:29:01;;;;;;;375.27;338.75;;;;;;;;;;5060950;28;20036;-70
2021/03/01 07:31:27;;;;;;;372.67;336.23;;;;;;;;;;5051956;28;20032;-68
2021/03/01 07:33:55;;;;;;;403.65;366.13;;;;;;;;;;5052521;28;20071;-69
2021/03/01 07:36:21;;;;;;;382.10;345.52;;;;;;;;;;5050969;28;20103;-69
2021/03/01 07:38:48;;;;;;;356.55;320.98;;;;;;;;;;5058204;28;20376;-70
2021/03/01 07:41:14;;;;;;;351.70;316.10;;;;;;;;;;5056534;28;20500;-71
2021/03/01 07:43:43;;;;;;;351.70;316.30;;;;;;;;;;5054669;28;20057;-68
2021/03/01 07:46:10;;;;;;;348.25;312.73;;;;;;;;;;5057228;28;20029;-68
2021/03/01 07:48:37;;;;;;;352.57;317.30;;;;;;;;;;5056500;28;20033;-69
2021/03/01 07:51:03;;;;;;;359.08;323.15;;;;;;;;;;5050278;28;20263;-70
2021/03/01 07:53:51;;;;;;;348.92;313.63;;;;;;;;;;5059112;28;20045;-69
2021/03/01 07:56:23;;;;;;;365.15;328.83;;;;;;;;;;5052720;28;20039;-69
2021/03/01 07:59:00;;;;;;;338.70;303.85;;;;;;;;;;5056884;28;20025;-69
2021/03/01 08:01:26;;;;;;;325.48;291.27;;;;;;;;;;5058752;28;20029;-69
2021/03/01 08:03:52;;;;;;;379.00;342.63;;;;;;;;;;5073319;28;20358;-69
2021/03/01 08:06:18;;;;;;;381.48;344.42;;;;;;;;;;5059980;28;20511;-70
2021/03/01 08:08:45;;;;;;;349.55;314.25;;;;;;;;;;5065081;28;20049;-72
2021/03/01 08:11:12;;;;;;;340.38;305.00;;;;;;;;;;5054648;28;20481;-71
2021/03/01 08:13:38;;;;;;;362.02;326.08;;;;;;;;;;5058434;28;20404;-70
2021/03/01 08:16:21;;;;;;;392.45;355.23;;;;;;;;;;5060103;28;20016;-70
2021/03/01 08:18:51;;;;;;;359.75;323.67;;;;;;;;;;5055813;28;20021;-70
2021/03/01 08:21:17;;;;;;;357.30;321.40;;;;;;;;;;5056527;28;20107;-70
2021/03/01 08:23:43;;;;;;;394.05;356.95;;;;;;;;;;5067034;28;20033;-72
2021/03/01 08:26:12;;;;;;;336.10;301.15;;;;;;;;;;5055705;28;20032;-69
2021/03/01 08:28:38;;;;;;;345.88;310.67;;;;;;;;;;5055973;28;20107;-71
2021/03/01 08:31:07;;;;;;;364.80;328.80;;;;;;;;;;5059839;28;20051;-70
2021/03/01 08:33:33;;;;;;;362.83;327.02;;;;;;;;;;5056800;28;20124;-70
2021/03/01 08:36:02;;;;;;;366.60;330.73;;;;;;;;;;5056362;28;20108;-71
2021/03/01 08:38:45;;;;;;;357.52;321.77;;;;;;;;;;5070902;28;20119;-70
2021/03/01 08:41:11;;;;;;;369.88;333.40;;;;;;;;;;5055705;28;20071;-72
2021/03/01 08:43:41;;;;;;;335.80;300.77;;;;;;;;;;5052130;28;21923;-71
2021/03/01 08:46:28;;;;;;;338.23;303.00;;;;;;;;;;5055480;28;20029;-71
2021/03/01 08:48:55;;;;;;;390.67;353.40;;;;;;;;;;5053017;28;20032;-71
2021/03/01 08:51:22;;;;;;;342.67;307.17;;;;;;;;;;5051639;28;20282;-71
2021/03/01 08:53:51;;;;;;;367.53;331.20;;;;;;;;;;5057377;28;20040;-70
2021/03/01 08:56:20;;;;;;;345.23;309.50;;;;;;;;;;5065651;28;21040;-72
2021/03/01 08:58:46;;;;;;;362.45;326.30;;;;;;;;;;5056838;28;20024;-72
2021/03/01 09:01:13;;;;;;;404.70;366.60;;;;;;;;;;5054513;28;20048;-70
2021/03/01 09:03:40;;;;;;;375.48;338.58;;;;;;;;;;5059494;28;20481;-70
2021/03/01 09:06:15;;;;;;;378.55;341.50;;;;;;;;;;5053662;28;20017;-70
2021/03/01 09:08:42;;;;;;;385.77;348.05;;;;;;;;;;5056113;28;20043;-70
2021/03/01 09:11:13;;;;;;;394.00;356.15;;;;;;;;;;5051766;28;20512;-70
2021/03/01 09:13:40;;;;;;;313.83;278.70;;;;;;;;;;5054613;28;22046;-70
2021/03/01 09:16:08;;;;;;;370.70;333.70;;;;;;;;;;5052421;28;20087;-70
2021/03/01 09:18:34;;;;;;;404.88;366.63;;;;;;;;;;5053113;28;20107;-69
2021/03/01 09:21:00;;;;;;;409.83;371.35;;;;;;;;;;5053199;28;20111;-70
2021/03/01 09:23:33;;;;;;;427.05;387.83;;;;;;;;;;5052056;28;20053;-70
2021/03/01 09:25:59;;;;;;;359.38;322.77;;;;;;;;;;5053631;28;20496;-70
2021/03/01 09:28:29;;;;;;;346.92;311.00;;;;;;;;;;5049536;28;20481;-70
2021/03/01 09:31:05;;;;;;;400.70;362.27;;;;;;;;;;5055310;28;20025;-70
2021/03/01 09:33:31;;;;;;;367.75;330.83;;;;;;;;;;5054886;28;20049;-70
2021/03/01 09:35:57;;;;;;;423.85;384.40;;;;;;;;;;5054518;28;20532;-70
2021/03/01 09:38:23;;;;;;;358.90;322.55;;;;;;;;;;5056987;28;20025;-70
2021/03/01 09:40:56;;;;;;;407.27;368.50;;;;;;;;;;5056508;28;20029;-71
2021/03/01 09:43:23;;;;;;;370.98;333.55;;;;;;;;;;5048998;28;20037;-70
2021/03/01 09:45:50;;;;;;;368.27;330.92;;;;;;;;;;5055854;28;20035;-70
2021/03/01 09:48:16;;;;;;;;;;;;;;;;;;5055489;28;20028;-71
2021/03/01 09:50:42;;;;;;;357.98;321.52;;;;;;;;;;5065314;28;19904;-72
2021/03/01 09:53:09;;;;;;;351.80;315.52;;;;;;;;;;5058625;28;20389;-70
2021/03/01 09:55:36;;;;;;;360.13;323.55;;;;;;;;;;5062055;28;20033;-70
2021/03/01 09:58:02;;;;;;;344.05;307.88;;;;;;;;;;5066136;28;20060;-72
2021/03/01 10:00:29;;;;;;;356.42;319.92;;;;;;;;;;5062047;28;20043;-73
2021/03/01 10:02:56;;;;;;;352.00;315.35;;;;;;;;;;5060708;28;20043;-72
2021/03/01 10:05:23;;;;;;;347.48;311.33;;;;;;;;;;5058539;28;20086;-70
2021/03/01 10:08:02;;;;;;;386.77;349.08;;;;;;;;;;5060309;28;20029;-73
2021/03/01 10:10:41;;;;;;;372.13;334.88;;;;;;;;;;5055722;28;20473;-72
2021/03/01 10:13:08;;;;;;;422.00;382.80;;;;;;;;;;5053356;28;20041;-71
2021/03/01 10:15:46;;;;;;;376.70;339.20;;;;;;;;;;5053428;28;20032;-70
2021/03/01 10:18:13;;;;;;;372.38;334.90;;;;;;;;;;5064692;28;20037;-69
2021/03/01 10:20:49;;;;;;;390.85;352.95;;;;;;;;;;5061849;28;20044;-70
2021/03/01 10:23:51;;;;;;;376.17;338.33;;;;;;;;;;5052677;28;20059;-70
2021/03/01 10:26:18;;;;;;;378.38;340.73;;;;;;;;;;5060656;28;20029;-72
2021/03/01 10:28:59;;;;;;;374.92;337.42;;;;;;;;;;5059949;28;20079;-73
2021/03/01 10:31:26;;;;;;;401.95;363.38;;;;;;;;;;5054404;28;20385;-70
2021/03/01 10:33:54;;;;;;;367.17;329.73;;;;;;;;;;5053779;28;20067;-70
2021/03/01 10:36:20;;;;;;;372.40;334.80;;;;;;;;;;5053490;28;20355;-69
2021/03/01 10:39:09;;;;;;;386.15;348.15;;;;;;;;;;5062446;28;20024;-70
2021/03/01 10:41:43;;;;;;;366.27;328.95;;;;;;;;;;5062727;28;20052;-69
2021/03/01 10:44:09;;;;;;;416.70;377.45;;;;;;;;;;5053195;28;20104;-70
2021/03/01 10:46:38;;;;;;;414.20;374.88;;;;;;;;;;5054148;28;20032;-70
2021/03/01 10:49:15;;;;;;;402.10;363.35;;;;;;;;;;5054096;28;20075;-71
2021/03/01 10:51:41;;;;;;;;;;;;;;;;;;5053001;28;20114;-73
2021/03/01 10:54:07;;;;;;;366.27;329.27;;;;;;;;;;5052693;28;19970;-71
2021/03/01 10:56:33;;;;;;;367.13;329.63;;;;;;;;;;5052473;28;20017;-72
2021/03/01 10:58:59;;;;;;;351.10;314.08;;;;;;;;;;5052504;28;20040;-70
2021/03/01 11:01:32;;;;;;;412.65;373.42;;;;;;;;;;5053620;28;20033;-71
2021/03/01 11:03:59;;;;;;;360.05;322.95;;;;;;;;;;5057955;28;20032;-69
2021/03/01 11:06:25;;;;;;;373.27;335.38;;;;;;;;;;5050037;28;20025;-71
2021/03/01 11:08:51;;;;;;;401.77;363.05;;;;;;;;;;5053564;28;20040;-70
2021/03/01 11:11:17;;;;;;;409.20;369.65;;;;;;;;;;5055461;28;20453;-74
2021/03/01 11:13:43;;;;;;;359.95;322.85;;;;;;;;;;5053165;28;20503;-72
2021/03/01 11:16:09;;;;;;;394.27;355.52;;;;;;;;;;5050958;28;20029;-70
2021/03/01 11:18:35;;;;;;;399.45;360.58;;;;;;;;;;5053985;28;20470;-69
2021/03/01 11:21:01;;;;;;;371.35;333.75;;;;;;;;;;5055926;28;20040;-71
2021/03/01 11:23:27;;;;;;;359.35;322.35;;;;;;;;;;5055648;28;20372;-69
2021/03/01 11:25:53;;;;;;;359.73;322.73;;;;;;;;;;5065530;28;20108;-70
2021/03/01 11:28:19;;;;;;;383.70;345.77;;;;;;;;;;5050974;28;20104;-71
2021/03/01 11:30:46;;;;;;;372.85;334.90;;;;;;;;;;5060662;28;20019;-71
2021/03/01 11:33:12;;;;;;;390.70;352.25;;;;;;;;;;5064656;28;20055;-71
2021/03/01 11:35:38;;;;;;;398.23;359.45;;;;;;;;;;5065121;28;20423;-70
2021/03/01 11:38:04;;;;;;;395.13;356.38;;;;;;;;;;5063812;28;20033;-71
2021/03/01 11:40:30;;;;;;;397.67;359.17;;;;;;;;;;5066087;28;20024;-71
2021/03/01 11:42:57;;;;;;;338.95;302.30;;;;;;;;;;5067585;28;20481;-71
2021/03/01 11:45:23;;;;;;;361.25;323.95;;;;;;;;;;5070765;28;20027;-72
2021/03/01 11:47:49;;;;;;;363.55;326.45;;;;;;;;;;5061164;28;20122;-71
2021/03/01 11:50:17;;;;;;;365.20;327.60;;;;;;;;;;5057275;28;20028;-71
2021/03/01 11:52:44;;;;;;;365.45;328.05;;;;;;;;;;5055149;28;20036;-69
2021/03/01 11:55:10;;;;;;;366.00;328.38;;;;;;;;;;5054827;28;20021;-70
2021/03/01 11:57:36;;;;;;;353.63;316.83;;;;;;;;;;5054905;28;20492;-71
2021/03/01 12:00:03;;;;;;;409.92;370.58;;;;;;;;;;5054202;28;20029;-71
2021/03/01 12:02:29;;;;;;;385.95;347.70;;;;;;;;;;5055445;28;20032;-69
2021/03/01 12:04:55;;;;;;;355.13;318.13;;;;;;;;;;5055601;28;20469;-69
2021/03/01 12:07:21;;;;;;;353.85;316.77;;;;;;;;;;5055419;28;20036;-69
2021/03/01 12:09:47;;;;;;;381.02;343.15;;;;;;;;;;5057378;28;20429;-70
2021/03/01 12:12:14;;;;;;;348.40;311.88;;;;;;;;;;5063284;28;20122;-69
2021/03/01 12:14:39;;;;;;;357.00;319.73;;;;;;;;;;5058630;28;20064;-71
2021/03/01 12:17:06;;;;;;;351.00;314.05;;;;;;;;;;5054955;28;20456;-69
2021/03/01 12:19:32;;;;;;;316.17;278.05;;;;;;;;;;5054648;28;20400;-69
2021/03/01 12:21:58;;;;;;;357.88;320.92;;;;;;;;;;5065330;28;20029;-69
2021/03/01 12:24:24;;;;;;;353.23;316.40;;;;;;;;;;5063103;28;20441;-69
2021/03/01 12:26:50;;;;;;;350.02;313.33;;;;;;;;;;5056862;28;20031;-70
2021/03/01 12:29:16;;;;;;;348.15;311.85;;;;;;;;;;5061212;28;20035;-69
2021/03/01 12:31:42;;;;;;;351.98;315.17;;;;;;;;;;5059214;28;20029;-68
2021/03/01 12:34:08;;;;;;;345.45;308.08;;;;;;;;;;5066222;28;20446;-72
2021/03/01 12:36:34;;;;;;;394.85;355.85;;;;;;;;;;5061348;28;20499;-72
2021/03/01 12:39:00;;;;;;;384.23;345.25;;;;;;;;;;5066013;28;20032;-72
2021/03/01 12:41:26;;;;;;;421.27;380.70;;;;;;;;;;5063814;28;20063;-73
2021/03/01 12:43:52;;;;;;;387.75;348.90;;;;;;;;;;5066505;28;20105;-73
2021/03/01 12:46:18;;;;;;;387.17;348.50;;;;;;;;;;5064040;28;20626;-73
2021/03/01 12:48:44;;;;;;;413.73;373.83;;;;;;;;;;5066043;28;20025;-72
2021/03/01 12:51:10;;;;;;;397.23;357.92;;;;;;;;;;5064863;28;20107;-75
2021/03/01 12:53:36;;;;;;;387.50;348.55;;;;;;;;;;5067092;28;20378;-73
2021/03/01 12:56:03;;;;;;;409.90;369.77;;;;;;;;;;5060671;28;20377;-75
2021/03/01 12:58:29;;;;;;;414.33;374.05;;;;;;;;;;5063556;28;20036;-76
2021/03/01 13:00:55;;;;;;;359.23;321.45;;;;;;;;;;5061448;28;20162;-76
2021/03/01 13:03:21;;;;;;;396.27;356.90;;;;;;;;;;5054971;28;20524;-76
2021/03/01 13:05:47;;;;;;;397.83;358.88;;;;;;;;;;5061927;28;20021;-75
2021/03/01 13:08:13;;;;;;;352.77;315.33;;;;;;;;;;5054397;28;20043;-72
2021/03/01 13:10:39;;;;;;;394.58;355.20;;;;;;;;;;5061471;28;20507;-74
2021/03/01 13:13:05;;;;;;;381.55;342.67;;;;;;;;;;5058685;28;20108;-73
2021/03/01 13:15:31;;;;;;;378.15;339.50;;;;;;;;;;5070774;28;20036;-73
2021/03/01 13:17:57;;;;;;;385.63;346.75;;;;;;;;;;5054197;28;20063;-75
2021/03/01 13:20:23;;;;;;;370.88;332.77;;;;;;;;;;5069300;28;20079;-73
2021/03/01 13:22:49;;;;;;;385.83;346.83;;;;;;;;;;5060726;28;20473;-74
2021/03/01 13:25:15;;;;;;;387.52;348.38;;;;;;;;;;5055963;28;20036;-75
2021/03/01 13:27:41;;;;;;;407.88;367.83;;;;;;;;;;5063036;28;20064;-76
2021/03/01 13:30:08;;;;;;;410.77;370.52;;;;;;;;;;5055037;28;20456;-75
2021/03/01 13:32:34;;;;;;;452.33;410.85;;;;;;;;;;5062065;28;20464;-76
2021/03/01 13:35:00;;;;;;;417.63;376.95;;;;;;;;;;5062334;28;20033;-76
2021/03/01 13:37:26;;;;;;;348.35;310.35;;;;;;;;;;5065730;28;20086;-77
2021/03/01 13:39:52;;;;;;;376.67;337.58;;;;;;;;;;5065856;28;20477;-75
2021/03/01 13:42:18;;;;;;;397.90;358.35;;;;;;;;;;5063107;28;20036;-75
2021/03/01 13:44:44;;;;;;;352.42;314.73;;;;;;;;;;5057411;28;20148;-76
2021/03/01 13:47:10;;;;;;;383.40;344.70;;;;;;;;;;5060816;28;20039;-74
2021/03/01 13:49:36;;;;;;;374.48;336.05;;;;;;;;;;5063557;28;20025;-74
2021/03/01 13:52:03;;;;;;;352.58;315.00;;;;;;;;;;5060017;28;20040;-74
2021/03/01 13:54:29;;;;;;;355.60;317.83;;;;;;;;;;5058559;28;20500;-76
2021/03/01 13:56:56;;;;;;;356.67;318.85;;;;;;;;;;5057185;28;20469;-75